createdAt,value
2023-05-11T00:01:55.372Z,41.70
2023-05-11T00:04:22.016Z,42.55
2023-05-11T00:06:48.670Z,42.89
2023-05-11T00:09:15.255Z,42.62
2023-05-11T00:11:41.834Z,43.12
2023-05-11T00:14:08.484Z,41.56
2023-05-11T00:16:35.159Z,42.29
2023-05-11T00:19:01.857Z,41.37
2023-05-11T00:21:28.463Z,42.02
2023-05-11T00:23:55.155Z,40.54
2023-05-11T00:26:21.723Z,40.46
2023-05-11T00:28:48.261Z,39.93
2023-05-11T00:31:14.841Z,41.10
2023-05-11T00:33:41.404Z,41.87
2023-05-11T00:36:08.152Z,40.05
2023-05-11T00:38:36.574Z,41.42
2023-05-11T00:41:03.392Z,41.21
2023-05-11T00:43:30.029Z,41.60
2023-05-11T00:45:56.549Z,41.28
2023-05-11T00:48:23.402Z,41.97
2023-05-11T00:50:50.538Z,42.56
2023-05-11T00:53:17.133Z,42.60
2023-05-11T00:55:43.749Z,42.85
2023-05-11T00:58:10.575Z,44.06
2023-05-11T01:00:37.170Z,43.16
2023-05-11T01:03:03.938Z,42.38
2023-05-11T01:05:36.225Z,42.26
2023-05-11T01:08:09.257Z,42.93
2023-05-11T01:10:35.815Z,42.17
2023-05-11T01:13:21.148Z,43.29
2023-05-11T01:15:50.434Z,43.61
2023-05-11T01:18:17.055Z,44.36
2023-05-11T01:20:46.252Z,43.76
2023-05-11T01:23:31.248Z,43.22
2023-05-11T01:25:58.129Z,43.12
2023-05-11T01:28:43.344Z,43.82
2023-05-11T01:31:11.395Z,43.89
2023-05-11T01:33:39.934Z,44.58
2023-05-11T01:36:09.223Z,43.37
2023-05-11T01:38:37.696Z,43.29
2023-05-11T01:41:09.002Z,43.68
2023-05-11T01:43:37.626Z,44.15
2023-05-11T01:46:05.094Z,43.79
2023-05-11T01:48:33.825Z,42.83
2023-05-11T01:51:01.576Z,43.19
2023-05-11T01:53:29.865Z,43.57
2023-05-11T01:55:57.172Z,43.89
2023-05-11T01:58:24.718Z,44.93
2023-05-11T02:00:53.283Z,45.10
2023-05-11T02:03:20.989Z,46.02
2023-05-11T02:05:48.369Z,45.48
2023-05-11T02:08:15.168Z,45.66
2023-05-11T02:10:42.312Z,44.41
2023-05-11T02:13:10.133Z,44.30
2023-05-11T02:15:41.673Z,44.85
2023-05-11T02:18:10.574Z,45.71
2023-05-11T02:20:39.545Z,45.14
2023-05-11T02:23:07.159Z,44.65
2023-05-11T02:25:34.005Z,44.92
2023-05-11T02:28:00.730Z,44.66
2023-05-11T02:30:29.086Z,44.99
2023-05-11T02:32:56.640Z,44.49
2023-05-11T02:35:28.847Z,44.74
2023-05-11T02:37:57.086Z,44.62
2023-05-11T02:40:31.160Z,45.32
2023-05-11T02:43:04.542Z,44.85
2023-05-11T02:45:32.496Z,47.15
2023-05-11T02:48:00.697Z,45.16
2023-05-11T02:50:28.371Z,46.84
2023-05-11T02:52:56.987Z,45.14
2023-05-11T02:55:23.669Z,45.17
2023-05-11T02:57:50.705Z,45.28
2023-05-11T03:00:18.247Z,45.00
2023-05-11T03:02:45.389Z,45.23
2023-05-11T03:05:12.159Z,44.81
2023-05-11T03:07:38.732Z,45.60
2023-05-11T03:10:05.753Z,44.52
2023-05-11T03:12:34.615Z,45.41
2023-05-11T03:15:02.512Z,44.67
2023-05-11T03:17:31.095Z,44.71
2023-05-11T03:19:58.714Z,45.21
2023-05-11T03:22:26.074Z,44.21
2023-05-11T03:24:52.990Z,44.70
2023-05-11T03:27:19.688Z,45.38
2023-05-11T03:29:47.117Z,46.42
2023-05-11T03:32:14.114Z,45.38
2023-05-11T03:34:41.351Z,44.73
2023-05-11T03:37:10.678Z,45.36
2023-05-11T03:39:39.010Z,44.57
2023-05-11T03:42:05.742Z,44.50
2023-05-11T03:44:33.068Z,44.29
2023-05-11T03:47:01.316Z,44.41
2023-05-11T03:49:28.680Z,44.34
2023-05-11T03:51:55.996Z,44.73
2023-05-11T03:54:23.072Z,45.60
2023-05-11T03:56:49.603Z,45.72
2023-05-11T03:59:16.643Z,45.45
2023-05-11T04:01:43.735Z,45.46
2023-05-11T04:04:10.499Z,45.25
2023-05-11T04:06:37.123Z,45.37
2023-05-11T04:09:04.216Z,45.61
2023-05-11T04:11:30.775Z,45.45
2023-05-11T04:13:57.319Z,46.75
2023-05-11T04:16:23.866Z,45.09
2023-05-11T04:18:50.650Z,45.69
2023-05-11T04:21:17.253Z,45.73
2023-05-11T04:23:43.820Z,44.95
2023-05-11T04:26:10.365Z,44.79
2023-05-11T04:28:36.963Z,44.85
2023-05-11T04:31:03.552Z,44.72
2023-05-11T04:33:30.194Z,44.59
2023-05-11T04:35:58.729Z,44.30
2023-05-11T04:38:25.447Z,44.24
2023-05-11T04:40:51.969Z,44.80
2023-05-11T04:43:18.877Z,44.59
2023-05-11T04:45:49.369Z,44.13
2023-05-11T04:48:19.518Z,43.97
2023-05-11T04:50:47.256Z,43.87
2023-05-11T04:53:13.958Z,43.68
2023-05-11T04:55:40.529Z,43.74
2023-05-11T04:58:07.077Z,43.74
2023-05-11T05:00:33.679Z,43.53
2023-05-11T05:03:00.486Z,43.30
2023-05-11T05:05:27.070Z,43.47
2023-05-11T05:07:53.633Z,43.56
2023-05-11T05:10:20.417Z,43.40
2023-05-11T05:12:47.075Z,43.47
2023-05-11T05:15:13.716Z,43.36
2023-05-11T05:17:40.723Z,43.16
2023-05-11T05:20:07.862Z,42.98
2023-05-11T05:22:34.563Z,42.62
2023-05-11T05:25:01.410Z,42.00
2023-05-11T05:27:28.096Z,42.27
2023-05-11T05:29:54.699Z,42.20
2023-05-11T05:32:21.299Z,42.13
2023-05-11T05:34:47.944Z,42.14
2023-05-11T05:37:14.473Z,42.00
2023-05-11T05:39:41.026Z,41.99
2023-05-11T05:42:07.857Z,42.17
2023-05-11T05:44:34.627Z,42.17
2023-05-11T05:47:01.222Z,42.18
2023-05-11T05:49:28.000Z,42.15
2023-05-11T05:51:54.695Z,41.98
2023-05-11T05:54:21.249Z,41.95
2023-05-11T05:56:49.217Z,41.59
2023-05-11T05:59:15.947Z,41.23
2023-05-11T06:01:46.390Z,41.56
2023-05-11T06:04:13.566Z,41.36
2023-05-11T06:06:40.248Z,40.97
2023-05-11T06:09:06.793Z,40.95
2023-05-11T06:11:33.581Z,40.54
2023-05-11T06:14:00.155Z,40.46
2023-05-11T06:16:27.764Z,40.51
2023-05-11T06:18:54.495Z,39.91
2023-05-11T06:21:21.121Z,39.56
2023-05-11T06:23:47.657Z,40.08
2023-05-11T06:26:14.261Z,39.71
2023-05-11T06:28:40.814Z,40.09
2023-05-11T06:31:07.503Z,39.91
2023-05-11T06:33:34.334Z,38.79
2023-05-11T06:36:05.148Z,39.49
2023-05-11T06:38:32.157Z,38.70
2023-05-11T06:41:04.811Z,38.68
2023-05-11T06:43:31.399Z,38.89
2023-05-11T06:45:58.031Z,38.61
2023-05-11T06:48:25.894Z,38.67
2023-05-11T06:50:52.479Z,38.19
2023-05-11T06:53:19.087Z,38.07
2023-05-11T06:55:45.710Z,38.42
2023-05-11T06:58:12.316Z,37.81
2023-05-11T07:00:39.063Z,38.17
2023-05-11T07:03:06.172Z,35.85
2023-05-11T07:05:33.103Z,37.92
2023-05-11T07:07:59.684Z,37.96
2023-05-11T07:10:26.516Z,37.97
2023-05-11T07:12:53.272Z,37.64
2023-05-11T07:15:19.889Z,37.55
2023-05-11T07:17:47.887Z,37.14
2023-05-11T07:20:14.850Z,36.97
2023-05-11T07:22:41.533Z,36.77
2023-05-11T07:25:09.704Z,35.83
2023-05-11T07:27:36.412Z,36.21
2023-05-11T07:30:06.223Z,36.08
2023-05-11T07:32:33.357Z,36.02
2023-05-11T07:34:59.941Z,35.71
2023-05-11T07:37:26.521Z,33.72
2023-05-11T07:39:54.389Z,32.87
2023-05-11T07:42:21.044Z,33.97
2023-05-11T07:44:47.676Z,35.11
2023-05-11T07:47:14.278Z,35.29
2023-05-11T07:49:44.031Z,35.42
2023-05-11T07:52:11.787Z,35.50
2023-05-11T07:54:40.318Z,35.58
2023-05-11T07:57:07.214Z,34.10
2023-05-11T07:59:33.915Z,34.09
2023-05-11T08:02:00.586Z,34.11
2023-05-11T08:04:27.597Z,33.31
2023-05-11T08:06:54.413Z,32.39
2023-05-11T08:09:21.006Z,33.69
2023-05-11T08:11:47.628Z,33.81
2023-05-11T08:14:14.451Z,33.72
2023-05-11T08:16:41.209Z,33.75
2023-05-11T08:19:08.043Z,33.85
2023-05-11T08:21:34.782Z,33.77
2023-05-11T08:24:01.308Z,33.97
2023-05-11T08:26:28.423Z,33.75
2023-05-11T08:28:55.037Z,33.67
2023-05-11T08:31:21.676Z,33.46
2023-05-11T08:33:48.375Z,33.38
2023-05-11T08:36:15.557Z,32.72
2023-05-11T08:38:42.239Z,33.33
2023-05-11T08:41:11.571Z,33.54
2023-05-11T08:43:39.842Z,33.56
2023-05-11T08:46:09.887Z,33.92
2023-05-11T08:48:36.672Z,34.04
2023-05-11T08:51:03.970Z,33.65
2023-05-11T08:53:30.941Z,33.96
2023-05-11T08:55:58.601Z,34.05
2023-05-11T08:58:26.303Z,34.10
2023-05-11T09:00:53.743Z,34.10
2023-05-11T09:03:21.377Z,34.19
2023-05-11T09:05:49.291Z,34.47
2023-05-11T09:08:17.937Z,33.31
2023-05-11T09:10:44.918Z,34.03
2023-05-11T09:13:12.092Z,33.92
2023-05-11T09:15:38.968Z,34.08
2023-05-11T09:18:05.980Z,33.02
2023-05-11T09:20:33.428Z,33.44
2023-05-11T09:23:00.538Z,33.60
2023-05-11T09:25:30.744Z,33.59
2023-05-11T09:27:58.047Z,33.29
2023-05-11T09:30:24.927Z,31.54
2023-05-11T09:32:51.618Z,32.76
2023-05-11T09:35:22.501Z,32.82
2023-05-11T09:37:59.078Z,31.97
2023-05-11T09:40:33.893Z,30.68
2023-05-11T09:43:01.684Z,30.77
2023-05-11T09:45:39.123Z,32.09
2023-05-11T09:48:24.649Z,32.32
2023-05-11T09:50:53.072Z,30.25
2023-05-11T09:53:19.639Z,31.86
2023-05-11T09:55:52.948Z,31.88
2023-05-11T09:58:19.726Z,31.83
2023-05-11T10:00:51.262Z,31.55
2023-05-11T10:03:18.329Z,31.31
2023-05-11T10:06:05.647Z,30.98
2023-05-11T10:08:34.441Z,30.74
2023-05-11T10:11:02.532Z,30.96
2023-05-11T10:13:30.411Z,31.00
2023-05-11T10:15:58.513Z,29.98
2023-05-11T10:18:25.775Z,30.90
2023-05-11T10:20:53.061Z,31.14
2023-05-11T10:23:20.231Z,32.67
2023-05-11T10:25:47.950Z,36.65
2023-05-11T10:28:15.131Z,38.64
2023-05-11T10:30:41.818Z,43.26
2023-05-11T10:33:08.654Z,48.45
2023-05-11T10:35:38.100Z,47.42
2023-05-11T10:38:04.708Z,47.52
2023-05-11T10:40:35.270Z,51.14
2023-05-11T10:43:04.647Z,44.55
2023-05-11T10:45:52.321Z,44.14
2023-05-11T10:48:24.955Z,42.93
2023-05-11T10:51:10.561Z,43.04
2023-05-11T10:53:37.163Z,42.69
2023-05-11T10:56:06.223Z,43.16
2023-05-11T10:58:36.248Z,45.92
2023-05-11T11:01:02.870Z,46.97
2023-05-11T11:03:30.401Z,45.58
2023-05-11T11:05:59.978Z,44.19
2023-05-11T11:08:28.675Z,43.63
2023-05-11T11:10:56.359Z,44.24
2023-05-11T11:13:24.486Z,44.88
2023-05-11T11:15:54.293Z,43.33
2023-05-11T11:18:24.180Z,41.69
2023-05-11T11:20:54.687Z,40.52
2023-05-11T11:23:39.715Z,40.01
2023-05-11T11:26:10.141Z,38.53
2023-05-11T11:28:57.112Z,38.07
2023-05-11T11:31:27.686Z,38.35
2023-05-11T11:33:59.334Z,38.37
2023-05-11T11:36:55.495Z,38.06
2023-05-11T11:39:22.508Z,38.34
2023-05-11T11:42:01.638Z,37.93
2023-05-11T11:44:28.458Z,37.96
2023-05-11T11:47:26.353Z,37.87
2023-05-11T11:49:53.999Z,37.71
2023-05-11T11:52:29.631Z,38.33
2023-05-11T11:54:57.160Z,38.73
2023-05-11T11:57:30.235Z,38.94
2023-05-11T11:59:57.034Z,41.02
2023-05-11T12:02:24.467Z,46.49
2023-05-11T12:04:57.927Z,45.14
2023-05-11T12:07:25.130Z,49.64
2023-05-11T12:09:53.076Z,45.47
2023-05-11T12:12:21.084Z,47.73
2023-05-11T12:14:50.915Z,53.93
2023-05-11T12:17:25.219Z,56.83
2023-05-11T12:19:51.989Z,53.78
2023-05-11T12:22:25.678Z,57.20
2023-05-11T12:24:56.203Z,55.74
2023-05-11T12:27:24.161Z,49.89
2023-05-11T12:29:51.060Z,48.20
2023-05-11T12:32:30.366Z,45.75
2023-05-11T12:34:57.561Z,44.93
2023-05-11T12:37:24.570Z,43.78
2023-05-11T12:39:54.154Z,42.22
2023-05-11T12:42:20.893Z,41.33
2023-05-11T12:44:47.606Z,40.01
2023-05-11T12:47:14.635Z,39.96
2023-05-11T12:49:44.178Z,40.17
2023-05-11T12:52:12.431Z,39.59
2023-05-11T12:54:40.160Z,36.35
2023-05-11T12:57:08.012Z,37.63
2023-05-11T12:59:39.248Z,36.53
2023-05-11T13:02:07.039Z,35.33
2023-05-11T13:04:33.607Z,32.75
2023-05-11T13:07:00.198Z,31.84
2023-05-11T13:09:27.383Z,31.33
2023-05-11T13:12:12.857Z,31.16
2023-05-11T13:14:40.048Z,28.22
2023-05-11T13:17:06.788Z,29.19
2023-05-11T13:19:33.998Z,30.19
2023-05-11T13:22:01.065Z,29.51
2023-05-11T13:24:27.644Z,27.09
2023-05-11T13:26:55.210Z,28.67
2023-05-11T13:29:21.833Z,29.27
2023-05-11T13:31:49.869Z,28.72
2023-05-11T13:34:16.834Z,28.75
2023-05-11T13:36:43.532Z,30.02
2023-05-11T13:39:10.104Z,30.82
2023-05-11T13:41:36.853Z,31.03
2023-05-11T13:44:03.650Z,31.77
2023-05-11T13:46:30.340Z,30.89
2023-05-11T13:48:58.295Z,29.66
2023-05-11T13:51:24.830Z,29.31
2023-05-11T13:53:51.397Z,27.78
2023-05-11T13:56:19.675Z,27.99
2023-05-11T13:58:46.260Z,26.98
2023-05-11T14:01:12.975Z,27.24
2023-05-11T14:03:39.950Z,27.80
2023-05-11T14:06:06.705Z,27.49
2023-05-11T14:08:33.285Z,27.11
2023-05-11T14:10:59.815Z,27.00
2023-05-11T14:13:26.382Z,25.91
2023-05-11T14:15:53.005Z,26.23
2023-05-11T14:18:19.770Z,26.56
2023-05-11T14:20:46.520Z,26.63
2023-05-11T14:23:13.518Z,26.98
2023-05-11T14:25:40.081Z,24.46
2023-05-11T14:28:06.814Z,25.67
2023-05-11T14:30:33.750Z,25.23
2023-05-11T14:33:00.882Z,25.31
2023-05-11T14:35:27.603Z,25.90
2023-05-11T14:37:54.785Z,24.37
2023-05-11T14:40:21.541Z,25.29
2023-05-11T14:42:48.648Z,25.73
2023-05-11T14:45:16.602Z,25.73
2023-05-11T14:47:43.478Z,25.41
2023-05-11T14:50:10.406Z,25.47
2023-05-11T14:52:36.964Z,25.82
2023-05-11T14:55:03.675Z,25.94
2023-05-11T14:57:30.398Z,26.65
2023-05-11T15:00:00.223Z,27.26
2023-05-11T15:02:27.486Z,26.98
2023-05-11T15:04:54.234Z,26.82
2023-05-11T15:07:21.279Z,26.84
2023-05-11T15:09:47.887Z,27.10
2023-05-11T15:12:14.442Z,27.21
2023-05-11T15:14:40.984Z,27.78
2023-05-11T15:17:07.566Z,28.07
2023-05-11T15:19:34.199Z,29.32
2023-05-11T15:22:00.811Z,30.59
2023-05-11T15:24:27.441Z,31.13
2023-05-11T15:26:54.008Z,33.13
2023-05-11T15:29:22.275Z,32.65
2023-05-11T15:31:48.963Z,31.69
2023-05-11T15:34:16.182Z,34.31
2023-05-11T15:36:42.922Z,35.32
2023-05-11T15:39:09.504Z,34.65
2023-05-11T15:41:36.038Z,37.59
2023-05-11T15:44:02.684Z,34.24
2023-05-11T15:46:29.390Z,33.71
2023-05-11T15:48:58.250Z,36.35
2023-05-11T15:51:26.201Z,37.34
2023-05-11T15:53:52.877Z,38.33
2023-05-11T15:56:19.647Z,37.89
2023-05-11T15:58:46.356Z,39.48
2023-05-11T16:01:13.215Z,37.17
2023-05-11T16:03:39.869Z,40.68
2023-05-11T16:06:06.650Z,37.80
2023-05-11T16:08:33.225Z,40.60
2023-05-11T16:10:59.797Z,41.20
2023-05-11T16:13:26.334Z,43.03
2023-05-11T16:15:53.112Z,40.68
2023-05-11T16:18:20.051Z,41.54
2023-05-11T16:20:46.796Z,41.16
2023-05-11T16:23:13.750Z,44.97
2023-05-11T16:25:40.321Z,45.39
2023-05-11T16:28:06.974Z,46.87
2023-05-11T16:30:33.654Z,48.42
2023-05-11T16:33:00.377Z,48.00
2023-05-11T16:35:27.126Z,44.69
2023-05-11T16:37:55.112Z,44.75
2023-05-11T16:40:22.046Z,44.75
2023-05-11T16:42:49.106Z,47.08
2023-05-11T16:45:16.593Z,44.34
2023-05-11T16:47:45.376Z,47.21
2023-05-11T16:50:16.125Z,44.27
2023-05-11T16:52:43.491Z,44.95
2023-05-11T16:55:10.306Z,46.48
2023-05-11T16:57:37.036Z,45.27
2023-05-11T17:00:04.299Z,47.19
2023-05-11T17:02:31.481Z,44.49
2023-05-11T17:04:58.344Z,43.87
2023-05-11T17:07:25.272Z,43.46
2023-05-11T17:09:56.367Z,44.12
2023-05-11T17:12:23.708Z,43.49
2023-05-11T17:14:50.281Z,45.45
2023-05-11T17:17:16.921Z,45.29
2023-05-11T17:19:43.488Z,44.21
2023-05-11T17:22:10.002Z,44.56
2023-05-11T17:24:37.204Z,45.65
2023-05-11T17:27:03.986Z,44.35
2023-05-11T17:29:31.100Z,45.53
2023-05-11T17:31:57.856Z,44.52
2023-05-11T17:34:27.941Z,44.06
2023-05-11T17:36:55.378Z,46.37
2023-05-11T17:39:21.923Z,45.78
2023-05-11T17:41:48.672Z,44.92
2023-05-11T17:44:15.278Z,44.78
2023-05-11T17:46:41.934Z,45.78
2023-05-11T17:49:08.934Z,46.67
2023-05-11T17:51:35.551Z,48.02
2023-05-11T17:54:02.237Z,55.53
2023-05-11T17:56:28.848Z,58.67
2023-05-11T17:58:56.273Z,50.62
2023-05-11T18:01:23.045Z,59.19
2023-05-11T18:03:49.948Z,59.77
2023-05-11T18:06:17.161Z,59.80
2023-05-11T18:08:43.936Z,60.30
2023-05-11T18:11:12.999Z,53.94
2023-05-11T18:13:39.895Z,59.21
2023-05-11T18:16:07.229Z,59.81
2023-05-11T18:18:34.438Z,55.21
2023-05-11T18:21:05.068Z,59.15
2023-05-11T18:23:32.227Z,58.19
2023-05-11T18:25:58.838Z,52.12
2023-05-11T18:28:25.549Z,60.30
2023-05-11T18:30:52.420Z,60.83
2023-05-11T18:33:18.998Z,59.89
2023-05-11T18:35:50.247Z,61.11
2023-05-11T18:38:16.808Z,60.84
2023-05-11T18:40:43.418Z,61.28
2023-05-11T18:43:09.983Z,60.89
2023-05-11T18:45:36.545Z,61.17
2023-05-11T18:48:03.934Z,61.53
2023-05-11T18:50:30.705Z,60.57
2023-05-11T18:52:57.435Z,61.15
2023-05-11T18:55:24.229Z,58.84
2023-05-11T18:57:51.600Z,59.00
2023-05-11T19:00:18.624Z,61.04
2023-05-11T19:02:48.153Z,61.07
2023-05-11T19:05:15.352Z,61.24
2023-05-11T19:07:42.088Z,61.63
2023-05-11T19:10:08.906Z,61.91
2023-05-11T19:12:35.490Z,61.89
2023-05-11T19:15:02.158Z,61.57
2023-05-11T19:17:29.348Z,61.86
2023-05-11T19:19:56.961Z,61.65
2023-05-11T19:22:26.735Z,62.84
2023-05-11T19:24:53.502Z,63.16
2023-05-11T19:27:20.114Z,63.15
2023-05-11T19:29:49.154Z,63.92
2023-05-11T19:32:15.847Z,64.12
2023-05-11T19:34:42.427Z,60.88
2023-05-11T19:37:09.220Z,62.63
2023-05-11T19:39:35.787Z,65.10
2023-05-11T19:42:02.634Z,63.69
2023-05-11T19:44:32.881Z,64.17
2023-05-11T19:46:59.591Z,61.64
2023-05-11T19:49:26.221Z,64.27
2023-05-11T19:51:52.770Z,63.33
2023-05-11T19:54:19.290Z,64.80
2023-05-11T19:56:46.639Z,63.34
2023-05-11T19:59:13.204Z,64.05
2023-05-11T20:01:39.749Z,64.03
2023-05-11T20:04:06.517Z,64.27
2023-05-11T20:06:33.459Z,62.91
2023-05-11T20:09:00.044Z,62.74
2023-05-11T20:11:26.672Z,63.67
2023-05-11T20:13:53.831Z,63.43
2023-05-11T20:16:25.264Z,63.39
2023-05-11T20:18:51.902Z,62.98
2023-05-11T20:21:18.485Z,63.12
2023-05-11T20:23:45.261Z,63.18
2023-05-11T20:26:11.840Z,63.75
2023-05-11T20:28:39.650Z,63.30
2023-05-11T20:31:06.351Z,63.93
2023-05-11T20:36:02.385Z,63.84
2023-05-11T20:38:29.048Z,63.79
2023-05-11T20:40:58.770Z,63.53
2023-05-11T20:43:28.310Z,63.91
2023-05-11T20:45:55.229Z,63.48
2023-05-11T20:48:32.416Z,63.39
2023-05-11T20:51:02.737Z,63.12
2023-05-11T20:53:30.906Z,63.00
2023-05-11T20:55:57.570Z,62.86
2023-05-11T20:58:24.151Z,62.80
2023-05-11T21:00:51.551Z,62.95
2023-05-11T21:03:18.413Z,63.46
2023-05-11T21:05:45.249Z,62.84
2023-05-11T21:08:11.811Z,60.72
2023-05-11T21:10:38.356Z,61.92
2023-05-11T21:13:04.899Z,60.83
2023-05-11T21:15:31.528Z,62.23
2023-05-11T21:17:58.520Z,60.18
2023-05-11T21:20:25.206Z,59.79
2023-05-11T21:22:52.476Z,62.37
2023-05-11T21:25:19.256Z,62.78
2023-05-11T21:27:45.979Z,62.58
2023-05-11T21:30:12.623Z,63.93
2023-05-11T21:32:39.214Z,63.78
2023-05-11T21:35:06.012Z,63.82
2023-05-11T21:37:34.006Z,61.26
2023-05-11T21:40:00.820Z,64.83
2023-05-11T21:42:27.482Z,64.07
2023-05-11T21:44:54.019Z,66.12
2023-05-11T21:47:20.579Z,65.04
2023-05-11T21:49:48.533Z,65.27
2023-05-11T21:52:16.114Z,64.71
2023-05-11T21:54:42.667Z,62.03
2023-05-11T21:57:09.299Z,61.98
2023-05-11T21:59:36.208Z,64.18
2023-05-11T22:02:03.801Z,61.92
2023-05-11T22:04:30.598Z,61.75
2023-05-11T22:07:01.533Z,62.03
2023-05-11T22:09:28.451Z,60.70
2023-05-11T22:11:55.062Z,60.41
2023-05-11T22:14:24.131Z,60.56
2023-05-11T22:16:50.750Z,60.54
2023-05-11T22:19:17.389Z,59.99
2023-05-11T22:21:43.906Z,60.46
2023-05-11T22:24:10.614Z,60.49
2023-05-11T22:26:37.165Z,60.29
2023-05-11T22:29:04.089Z,60.48
2023-05-11T22:31:31.063Z,60.50
2023-05-11T22:33:58.649Z,60.59
2023-05-11T22:36:25.190Z,60.43
2023-05-11T22:38:51.782Z,60.49
2023-05-11T22:41:18.404Z,61.63
2023-05-11T22:43:45.215Z,60.74
2023-05-11T22:46:11.799Z,60.17
2023-05-11T22:48:38.731Z,63.42
2023-05-11T22:51:06.428Z,64.62
2023-05-11T22:53:33.151Z,62.87
2023-05-11T22:56:09.318Z,60.88
2023-05-11T22:58:35.952Z,60.86
2023-05-11T23:01:02.529Z,60.24
2023-05-11T23:03:29.183Z,60.30
2023-05-11T23:05:55.794Z,60.33
2023-05-11T23:08:22.945Z,60.25
2023-05-11T23:10:50.247Z,60.50
2023-05-11T23:13:17.636Z,60.63
2023-05-11T23:15:44.336Z,60.64
2023-05-11T23:18:11.149Z,60.82
2023-05-11T23:20:37.861Z,61.38
2023-05-11T23:23:04.504Z,61.70
2023-05-11T23:25:31.069Z,65.08
2023-05-11T23:27:57.626Z,62.43
2023-05-11T23:30:24.189Z,63.82
2023-05-11T23:32:50.795Z,61.65
2023-05-11T23:35:17.423Z,62.85
2023-05-11T23:37:44.013Z,61.53
2023-05-11T23:40:10.689Z,59.83
2023-05-11T23:42:37.259Z,61.20
2023-05-11T23:45:04.420Z,60.49
2023-05-11T23:47:32.519Z,58.89
2023-05-11T23:49:59.656Z,58.82
2023-05-11T23:52:26.197Z,58.40
2023-05-11T23:54:53.243Z,58.23
2023-05-11T23:57:19.769Z,59.22
2023-05-11T23:59:46.310Z,58.14
